Warning: Javascript must be enabled to use all the features on this page!


Page Loading - Please Wait...

* We've detected you're using a mobile device. Find our Next Generation Station Page here.
Click to hideNews Bulletins

Peak Streamflow for the Nation

USGS 01500500 SUSQUEHANNA RIVER AT UNADILLA NY

Otsego County, New York
Hydrologic Unit Code 02050101
Latitude  42°19'17.4", Longitude  75°18'59.0" NAD83
Drainage area 982  square miles
Contributing drainage area 982  square miles
Gage datum 996.85 feet above NAVD88
Output formats
Table
Graph
Tab-separated file
peakfq (watstore) format
Reselect output format
Water
Year
Date Gage
Height
(feet)
Stream-
flow
(cfs)
1935 1935-07 16.00Bd 29,0007,Bd
1936 1936-03-18 16.60 31,3007
1938 1938-09-22 13.76 21,000
1939 1939-02-21 11.90 15,600
1940 1940-03-31 13.54 20,300
1941 1940-12-30 9.79 10,300
1942 1942-03-18 12.09 16,100
1943 1942-12-30 13.94 21,500
1944 1944-03-18 11.48 14,400
1945 1945-03-18 10.31 11,500
1946 1946-03-08 11.18 13,700
1947 1947-04-06 11.15 13,600
1948 1948-03-22 13.18 19,200
1949 1948-12-31 11.49 14,500
1950 1950-03-29 11.46 14,4005
1951 1950-12-05 10.45 11,8005
1952 1952-04-03 9.39 9,4405
1953 1952-12-12 10.61 12,2005
1954 1954-02-18 10.38 11,7005
1955 1955-03-12 10.27 11,0005
1956 1956-04-06 12.38 16,0005
1957 1957-01-23 9.67 9,5105
1958 1958-04-08 11.71 14,2005
1959 1959-01-22 13.421 17,0005
1960 1960-04-04 14.25 21,2005
1961 1961-02-26 11.66 14,1005
1962 1962-04-02 12.83 17,2005
1963 1963-03-27 12.62 16,6005
1964 1964-03-06 13.17 18,2005
1965 1965-02-09 7.312 5,2605
1966 1966-03-25 8.97 8,1005
1967 1967-04-02 8.69 7,5705
1968 1968-03-24 9.72 9,6105
1969 1969-04-05 8.92 8,0105
1970 1969-11-09 10.96 12,4005
1971 1971-04-14 9.482 9,1105
1972 1972-04-21 10.50 11,3005
1973 1972-12-07 10.31 10,9005
1974 1973-12-22 10.14 10,5005
1975 1975-02-25 10.25 10,8005
1976 1975-10-19 10.46 11,2005
1977 1977-03-14 14.64 23,5005
1978 1977-10-18 14.13 21,9005
1979 1979-03-06 13.90 21,2005
1980 1980-03-22 11.34 13,9005
1981 1981-02-21 8.952 8,5005
1982 1981-10-29 9.552 9,7205
1983 1983-04-26 11.23 13,6005
1984 1983-12-14 10.51 11,8005
1985 1985-03-13 9.22 9,2105
1986 1986-03-16 13.18 19,0005
1987 1987-04-05 11.47 14,3005
1988 1988-02-02 9.56 9,8805
1989 1989-05-07 9.81 10,4005
1990 1990-02-17 9.78 10,3005
1991 1990-11-11 9.31 9,3905
1992 1992-03-11 8.53 7,8705
1993 1993-03-31 13.49 19,9005
1994 1994-04-08 10.56 12,0005
1995 1995-03-09 8.26 7,3605
1996 1996-01-19   17,1002,5
1997 1996-11-10 11.68 14,8005
1998 1998-01-10 13.60 20,3005
1999 1999-01-25 11.40 14,1005
2000 2000-02-28 12.73 17,7005
2001 2001-04-10 11.57 14,8005
2002 2002-03-27 9.56 10,7005
2003 2003-03-22 11.47 14,3005
2004 2004-09-19 10.51 11,9005
2005 2005-04-03 13.68 20,5005
2006 2006-06-29 17.72 35,1005
2007 2007-03-28 10.84 12,8005
2008 2008-03-09 11.61 14,7005
2009 2009-03-10 9.37 9,4705
2010 2010-03-24 11.29 13,9005
2011 2011-09-08 16.34 29,7005,9
2012 2012-01-28 7.76 6,4305
2013 2013-06-14 9.55 9,8505
2014 2014-05-17 9.26 9,2405
2015 2015-04-11 9.92 10,6005
2016 2016-02-25 9.41 9,4805
2017 2017-04-07 11.57 14,7005
2018 2018-02-22 8.87 8,3405
2019 2019-02-09 9.32 9,3705
2020 2019-11-02 9.40 9,4605
?
  Peak Gage-Height Qualification Codes.
?
  Peak Streamflow Qualification Codes.